sensor_id;sensor_type;location;lat;lon;timestamp;P1;durP1;ratioP1;P2;durP2;ratioP2
57315;SDS011;43156;50.942;18.144;2022-09-21T00:01:10;3.00;;;2.10;;
57315;SDS011;43156;50.942;18.144;2022-09-21T00:03:39;4.00;;;2.00;;
57315;SDS011;43156;50.942;18.144;2022-09-21T00:06:09;2.50;;;1.70;;
57315;SDS011;43156;50.942;18.144;2022-09-21T00:08:37;4.20;;;3.30;;
57315;SDS011;43156;50.942;18.144;2022-09-21T00:11:03;2.60;;;2.00;;
57315;SDS011;43156;50.942;18.144;2022-09-21T00:13:34;5.50;;;5.00;;
57315;SDS011;43156;50.942;18.144;2022-09-21T00:16:05;3.00;;;2.20;;
57315;SDS011;43156;50.942;18.144;2022-09-21T00:18:32;4.10;;;2.60;;
57315;SDS011;43156;50.942;18.144;2022-09-21T00:21:00;3.40;;;2.60;;
57315;SDS011;43156;50.942;18.144;2022-09-21T00:23:27;4.00;;;3.50;;
57315;SDS011;43156;50.942;18.144;2022-09-21T00:26:02;6.50;;;5.70;;
57315;SDS011;43156;50.942;18.144;2022-09-21T00:28:42;3.80;;;3.30;;
57315;SDS011;43156;50.942;18.144;2022-09-21T00:31:10;3.10;;;2.00;;
57315;SDS011;43156;50.942;18.144;2022-09-21T00:33:38;3.10;;;2.10;;
57315;SDS011;43156;50.942;18.144;2022-09-21T00:36:06;3.30;;;2.50;;
57315;SDS011;43156;50.942;18.144;2022-09-21T00:38:34;2.30;;;2.00;;
57315;SDS011;43156;50.942;18.144;2022-09-21T00:41:01;2.80;;;1.90;;
57315;SDS011;43156;50.942;18.144;2022-09-21T00:43:28;3.20;;;2.30;;
57315;SDS011;43156;50.942;18.144;2022-09-21T00:45:59;3.00;;;1.90;;
57315;SDS011;43156;50.942;18.144;2022-09-21T00:48:28;7.10;;;2.20;;
57315;SDS011;43156;50.942;18.144;2022-09-21T00:50:56;2.70;;;1.70;;
57315;SDS011;43156;50.942;18.144;2022-09-21T00:53:28;3.30;;;2.10;;
57315;SDS011;43156;50.942;18.144;2022-09-21T00:55:56;3.70;;;2.80;;
57315;SDS011;43156;50.942;18.144;2022-09-21T00:58:26;3.10;;;2.00;;
57315;SDS011;43156;50.942;18.144;2022-09-21T01:00:55;3.80;;;2.30;;
57315;SDS011;43156;50.942;18.144;2022-09-21T01:03:22;3.30;;;1.90;;
57315;SDS011;43156;50.942;18.144;2022-09-21T01:05:48;3.50;;;1.80;;
57315;SDS011;43156;50.942;18.144;2022-09-21T01:08:15;2.60;;;1.80;;
57315;SDS011;43156;50.942;18.144;2022-09-21T01:13:34;5.00;;;3.30;;
57315;SDS011;43156;50.942;18.144;2022-09-21T01:16:29;2.50;;;2.00;;
57315;SDS011;43156;50.942;18.144;2022-09-21T01:22:02;2.40;;;2.00;;
57315;SDS011;43156;50.942;18.144;2022-09-21T01:24:35;2.40;;;1.90;;
57315;SDS011;43156;50.942;18.144;2022-09-21T01:30:18;3.20;;;2.20;;
57315;SDS011;43156;50.942;18.144;2022-09-21T01:32:47;4.20;;;2.50;;
57315;SDS011;43156;50.942;18.144;2022-09-21T01:37:55;2.70;;;2.10;;
57315;SDS011;43156;50.942;18.144;2022-09-21T01:43:30;3.30;;;2.20;;
57315;SDS011;43156;50.942;18.144;2022-09-21T01:46:00;3.20;;;2.20;;
57315;SDS011;43156;50.942;18.144;2022-09-21T01:48:33;4.00;;;2.20;;
57315;SDS011;43156;50.942;18.144;2022-09-21T01:51:03;3.20;;;2.50;;
57315;SDS011;43156;50.942;18.144;2022-09-21T01:53:55;2.50;;;2.20;;
57315;SDS011;43156;50.942;18.144;2022-09-21T01:56:27;3.70;;;2.20;;
57315;SDS011;43156;50.942;18.144;2022-09-21T01:59:02;2.30;;;2.10;;
57315;SDS011;43156;50.942;18.144;2022-09-21T02:01:33;3.70;;;2.10;;
57315;SDS011;43156;50.942;18.144;2022-09-21T02:04:03;3.10;;;2.20;;
57315;SDS011;43156;50.942;18.144;2022-09-21T02:06:34;3.20;;;2.50;;
57315;SDS011;43156;50.942;18.144;2022-09-21T02:09:03;4.60;;;2.30;;
57315;SDS011;43156;50.942;18.144;2022-09-21T02:11:29;2.80;;;2.40;;
57315;SDS011;43156;50.942;18.144;2022-09-21T02:13:56;3.90;;;2.50;;
57315;SDS011;43156;50.942;18.144;2022-09-21T02:30:08;4.30;;;3.30;;
57315;SDS011;43156;50.942;18.144;2022-09-21T02:32:48;5.40;;;3.90;;
57315;SDS011;43156;50.942;18.144;2022-09-21T02:40:38;6.30;;;4.80;;
57315;SDS011;43156;50.942;18.144;2022-09-21T02:43:11;5.70;;;4.40;;
57315;SDS011;43156;50.942;18.144;2022-09-21T02:46:08;4.90;;;4.20;;
57315;SDS011;43156;50.942;18.144;2022-09-21T02:48:55;5.00;;;3.80;;
57315;SDS011;43156;50.942;18.144;2022-09-21T02:51:27;9.10;;;4.10;;
57315;SDS011;43156;50.942;18.144;2022-09-21T02:53:57;5.20;;;4.70;;
57315;SDS011;43156;50.942;18.144;2022-09-21T02:56:27;5.20;;;4.30;;
57315;SDS011;43156;50.942;18.144;2022-09-21T02:58:54;5.80;;;5.20;;
57315;SDS011;43156;50.942;18.144;2022-09-21T03:01:23;7.00;;;5.40;;
57315;SDS011;43156;50.942;18.144;2022-09-21T03:03:51;4.80;;;4.30;;
57315;SDS011;43156;50.942;18.144;2022-09-21T03:06:17;7.40;;;5.50;;
57315;SDS011;43156;50.942;18.144;2022-09-21T03:08:44;8.30;;;4.90;;
57315;SDS011;43156;50.942;18.144;2022-09-21T03:11:14;7.10;;;5.00;;
57315;SDS011;43156;50.942;18.144;2022-09-21T03:13:43;7.40;;;4.70;;
57315;SDS011;43156;50.942;18.144;2022-09-21T03:16:09;8.50;;;4.70;;
57315;SDS011;43156;50.942;18.144;2022-09-21T03:18:36;5.40;;;4.70;;
57315;SDS011;43156;50.942;18.144;2022-09-21T03:21:02;7.60;;;4.90;;
57315;SDS011;43156;50.942;18.144;2022-09-21T03:23:29;10.90;;;5.20;;
57315;SDS011;43156;50.942;18.144;2022-09-21T03:25:54;12.50;;;4.70;;
57315;SDS011;43156;50.942;18.144;2022-09-21T03:28:21;6.40;;;4.50;;
57315;SDS011;43156;50.942;18.144;2022-09-21T03:30:48;24.20;;;5.50;;
57315;SDS011;43156;50.942;18.144;2022-09-21T03:33:15;8.30;;;4.90;;
57315;SDS011;43156;50.942;18.144;2022-09-21T03:35:42;13.30;;;4.80;;
57315;SDS011;43156;50.942;18.144;2022-09-21T03:38:08;9.90;;;4.90;;
57315;SDS011;43156;50.942;18.144;2022-09-21T03:40:34;10.10;;;4.50;;
57315;SDS011;43156;50.942;18.144;2022-09-21T03:43:00;11.40;;;4.40;;
57315;SDS011;43156;50.942;18.144;2022-09-21T03:45:26;13.50;;;5.00;;
57315;SDS011;43156;50.942;18.144;2022-09-21T03:47:56;7.20;;;4.80;;
57315;SDS011;43156;50.942;18.144;2022-09-21T03:50:23;7.30;;;4.80;;
57315;SDS011;43156;50.942;18.144;2022-09-21T03:52:54;11.70;;;4.70;;
57315;SDS011;43156;50.942;18.144;2022-09-21T03:55:20;14.50;;;4.80;;
57315;SDS011;43156;50.942;18.144;2022-09-21T03:57:47;9.50;;;4.90;;
57315;SDS011;43156;50.942;18.144;2022-09-21T04:00:15;9.30;;;4.80;;
57315;SDS011;43156;50.942;18.144;2022-09-21T04:02:41;10.90;;;4.70;;
57315;SDS011;43156;50.942;18.144;2022-09-21T04:05:08;10.60;;;5.00;;
57315;SDS011;43156;50.942;18.144;2022-09-21T04:07:39;10.70;;;5.50;;
57315;SDS011;43156;50.942;18.144;2022-09-21T04:10:08;18.20;;;5.10;;
57315;SDS011;43156;50.942;18.144;2022-09-21T04:12:39;11.50;;;5.10;;
57315;SDS011;43156;50.942;18.144;2022-09-21T04:15:09;11.90;;;4.80;;
57315;SDS011;43156;50.942;18.144;2022-09-21T04:17:37;13.50;;;5.20;;
57315;SDS011;43156;50.942;18.144;2022-09-21T04:20:03;11.80;;;5.20;;
57315;SDS011;43156;50.942;18.144;2022-09-21T04:22:31;6.60;;;4.80;;
57315;SDS011;43156;50.942;18.144;2022-09-21T04:24:57;16.00;;;5.00;;
57315;SDS011;43156;50.942;18.144;2022-09-21T04:27:23;7.40;;;4.50;;
57315;SDS011;43156;50.942;18.144;2022-09-21T04:29:49;9.30;;;4.90;;
57315;SDS011;43156;50.942;18.144;2022-09-21T04:32:16;5.90;;;4.80;;
57315;SDS011;43156;50.942;18.144;2022-09-21T04:34:42;7.30;;;5.10;;
57315;SDS011;43156;50.942;18.144;2022-09-21T04:37:08;12.70;;;5.40;;
57315;SDS011;43156;50.942;18.144;2022-09-21T04:39:37;8.10;;;5.60;;
57315;SDS011;43156;50.942;18.144;2022-09-21T04:42:04;8.10;;;5.00;;
57315;SDS011;43156;50.942;18.144;2022-09-21T04:44:32;8.20;;;5.20;;
57315;SDS011;43156;50.942;18.144;2022-09-21T04:46:58;7.10;;;4.90;;
57315;SDS011;43156;50.942;18.144;2022-09-21T04:49:24;7.10;;;5.20;;
57315;SDS011;43156;50.942;18.144;2022-09-21T04:51:50;7.60;;;4.90;;
57315;SDS011;43156;50.942;18.144;2022-09-21T04:54:17;7.20;;;5.00;;
57315;SDS011;43156;50.942;18.144;2022-09-21T04:56:43;9.60;;;5.80;;
57315;SDS011;43156;50.942;18.144;2022-09-21T04:59:10;5.90;;;5.10;;
57315;SDS011;43156;50.942;18.144;2022-09-21T05:01:37;6.60;;;5.00;;
57315;SDS011;43156;50.942;18.144;2022-09-21T05:04:03;7.20;;;5.40;;
57315;SDS011;43156;50.942;18.144;2022-09-21T05:06:30;5.70;;;5.20;;
57315;SDS011;43156;50.942;18.144;2022-09-21T05:08:57;6.00;;;5.10;;
57315;SDS011;43156;50.942;18.144;2022-09-21T05:11:42;7.40;;;5.20;;
57315;SDS011;43156;50.942;18.144;2022-09-21T05:14:11;6.40;;;5.70;;
57315;SDS011;43156;50.942;18.144;2022-09-21T05:16:37;6.30;;;5.40;;
57315;SDS011;43156;50.942;18.144;2022-09-21T05:19:03;5.50;;;5.00;;
57315;SDS011;43156;50.942;18.144;2022-09-21T05:21:29;5.80;;;5.30;;
57315;SDS011;43156;50.942;18.144;2022-09-21T05:23:56;7.20;;;6.40;;
57315;SDS011;43156;50.942;18.144;2022-09-21T05:26:23;6.40;;;5.80;;
57315;SDS011;43156;50.942;18.144;2022-09-21T05:28:51;7.50;;;6.60;;
57315;SDS011;43156;50.942;18.144;2022-09-21T05:40:07;6.60;;;5.90;;
57315;SDS011;43156;50.942;18.144;2022-09-21T05:42:35;6.70;;;6.10;;
57315;SDS011;43156;50.942;18.144;2022-09-21T05:45:01;6.40;;;5.80;;
57315;SDS011;43156;50.942;18.144;2022-09-21T05:58:02;6.30;;;5.70;;
57315;SDS011;43156;50.942;18.144;2022-09-21T06:03:46;6.30;;;5.70;;
57315;SDS011;43156;50.942;18.144;2022-09-21T06:06:15;6.40;;;5.80;;
57315;SDS011;43156;50.942;18.144;2022-09-21T06:08:42;6.10;;;5.50;;
57315;SDS011;43156;50.942;18.144;2022-09-21T06:11:08;6.80;;;6.10;;
57315;SDS011;43156;50.942;18.144;2022-09-21T06:13:35;5.40;;;4.90;;
57315;SDS011;43156;50.942;18.144;2022-09-21T06:16:02;6.30;;;5.60;;
57315;SDS011;43156;50.942;18.144;2022-09-21T06:18:29;6.80;;;6.10;;
57315;SDS011;43156;50.942;18.144;2022-09-21T06:20:55;6.80;;;6.00;;
57315;SDS011;43156;50.942;18.144;2022-09-21T06:23:21;6.60;;;5.90;;
57315;SDS011;43156;50.942;18.144;2022-09-21T06:25:51;5.90;;;5.40;;
57315;SDS011;43156;50.942;18.144;2022-09-21T06:28:18;6.20;;;5.60;;
57315;SDS011;43156;50.942;18.144;2022-09-21T06:30:49;8.90;;;5.50;;
57315;SDS011;43156;50.942;18.144;2022-09-21T06:33:15;7.40;;;6.70;;
57315;SDS011;43156;50.942;18.144;2022-09-21T06:35:55;7.60;;;6.90;;
57315;SDS011;43156;50.942;18.144;2022-09-21T06:38:22;6.80;;;6.20;;
57315;SDS011;43156;50.942;18.144;2022-09-21T06:40:49;6.70;;;6.10;;
57315;SDS011;43156;50.942;18.144;2022-09-21T06:43:16;7.20;;;6.60;;
57315;SDS011;43156;50.942;18.144;2022-09-21T06:45:42;5.50;;;5.00;;
57315;SDS011;43156;50.942;18.144;2022-09-21T06:48:08;5.80;;;5.20;;
57315;SDS011;43156;50.942;18.144;2022-09-21T06:50:34;4.50;;;4.10;;
57315;SDS011;43156;50.942;18.144;2022-09-21T06:53:01;5.10;;;4.60;;
57315;SDS011;43156;50.942;18.144;2022-09-21T06:55:30;4.70;;;4.20;;
57315;SDS011;43156;50.942;18.144;2022-09-21T06:58:00;4.60;;;4.20;;
57315;SDS011;43156;50.942;18.144;2022-09-21T07:00:27;4.60;;;4.20;;
57315;SDS011;43156;50.942;18.144;2022-09-21T07:02:53;4.90;;;4.40;;
57315;SDS011;43156;50.942;18.144;2022-09-21T07:05:19;5.40;;;4.80;;
57315;SDS011;43156;50.942;18.144;2022-09-21T07:07:46;5.40;;;4.40;;
57315;SDS011;43156;50.942;18.144;2022-09-21T07:10:12;5.20;;;4.80;;
57315;SDS011;43156;50.942;18.144;2022-09-21T07:12:38;5.10;;;4.60;;
57315;SDS011;43156;50.942;18.144;2022-09-21T07:15:06;5.40;;;4.90;;
57315;SDS011;43156;50.942;18.144;2022-09-21T07:17:34;5.70;;;5.00;;
57315;SDS011;43156;50.942;18.144;2022-09-21T07:20:02;4.90;;;4.50;;
57315;SDS011;43156;50.942;18.144;2022-09-21T07:22:29;4.80;;;4.30;;
57315;SDS011;43156;50.942;18.144;2022-09-21T07:24:55;5.10;;;4.60;;
57315;SDS011;43156;50.942;18.144;2022-09-21T07:27:26;4.60;;;4.20;;
57315;SDS011;43156;50.942;18.144;2022-09-21T07:29:53;8.50;;;6.20;;
57315;SDS011;43156;50.942;18.144;2022-09-21T07:32:20;4.80;;;4.30;;
57315;SDS011;43156;50.942;18.144;2022-09-21T07:34:46;5.00;;;4.20;;
57315;SDS011;43156;50.942;18.144;2022-09-21T07:37:12;5.40;;;4.70;;
57315;SDS011;43156;50.942;18.144;2022-09-21T07:39:39;4.60;;;4.20;;
57315;SDS011;43156;50.942;18.144;2022-09-21T07:42:05;4.30;;;3.90;;
57315;SDS011;43156;50.942;18.144;2022-09-21T07:44:32;6.20;;;4.80;;
57315;SDS011;43156;50.942;18.144;2022-09-21T07:46:58;10.80;;;7.40;;
57315;SDS011;43156;50.942;18.144;2022-09-21T07:49:26;5.70;;;4.90;;
57315;SDS011;43156;50.942;18.144;2022-09-21T07:51:52;5.30;;;4.80;;
57315;SDS011;43156;50.942;18.144;2022-09-21T07:54:19;5.70;;;4.90;;
57315;SDS011;43156;50.942;18.144;2022-09-21T07:56:45;6.60;;;6.00;;
57315;SDS011;43156;50.942;18.144;2022-09-21T07:59:31;5.30;;;4.50;;
57315;SDS011;43156;50.942;18.144;2022-09-21T08:01:57;5.20;;;4.40;;
57315;SDS011;43156;50.942;18.144;2022-09-21T08:04:24;4.80;;;4.40;;
57315;SDS011;43156;50.942;18.144;2022-09-21T08:06:53;4.70;;;4.20;;
57315;SDS011;43156;50.942;18.144;2022-09-21T08:09:20;4.60;;;3.80;;
57315;SDS011;43156;50.942;18.144;2022-09-21T08:11:46;4.40;;;4.10;;
57315;SDS011;43156;50.942;18.144;2022-09-21T08:14:13;4.20;;;3.90;;
57315;SDS011;43156;50.942;18.144;2022-09-21T08:16:44;9.50;;;7.70;;
57315;SDS011;43156;50.942;18.144;2022-09-21T08:19:12;4.50;;;4.10;;
57315;SDS011;43156;50.942;18.144;2022-09-21T08:21:39;4.60;;;4.20;;
57315;SDS011;43156;50.942;18.144;2022-09-21T08:24:05;5.70;;;4.90;;
57315;SDS011;43156;50.942;18.144;2022-09-21T08:26:31;5.00;;;4.60;;
57315;SDS011;43156;50.942;18.144;2022-09-21T08:28:58;4.80;;;4.20;;
57315;SDS011;43156;50.942;18.144;2022-09-21T08:31:24;5.50;;;4.90;;
57315;SDS011;43156;50.942;18.144;2022-09-21T08:33:51;5.90;;;5.00;;
57315;SDS011;43156;50.942;18.144;2022-09-21T08:36:18;4.80;;;4.40;;
57315;SDS011;43156;50.942;18.144;2022-09-21T08:38:44;4.90;;;4.50;;
57315;SDS011;43156;50.942;18.144;2022-09-21T08:41:18;4.90;;;4.40;;
57315;SDS011;43156;50.942;18.144;2022-09-21T08:46:26;4.80;;;4.40;;
57315;SDS011;43156;50.942;18.144;2022-09-21T08:48:55;5.60;;;5.00;;
57315;SDS011;43156;50.942;18.144;2022-09-21T08:51:35;5.20;;;4.70;;
57315;SDS011;43156;50.942;18.144;2022-09-21T08:54:09;5.10;;;4.00;;
57315;SDS011;43156;50.942;18.144;2022-09-21T08:56:40;4.80;;;4.40;;
57315;SDS011;43156;50.942;18.144;2022-09-21T08:59:10;4.70;;;4.20;;
57315;SDS011;43156;50.942;18.144;2022-09-21T09:07:13;4.30;;;3.90;;
57315;SDS011;43156;50.942;18.144;2022-09-21T09:15:48;4.20;;;3.80;;
57315;SDS011;43156;50.942;18.144;2022-09-21T09:21:04;4.90;;;4.10;;
57315;SDS011;43156;50.942;18.144;2022-09-21T09:23:39;4.40;;;4.00;;
57315;SDS011;43156;50.942;18.144;2022-09-21T09:26:14;5.00;;;4.10;;
57315;SDS011;43156;50.942;18.144;2022-09-21T09:28:58;5.10;;;4.30;;
57315;SDS011;43156;50.942;18.144;2022-09-21T09:31:27;4.30;;;3.80;;
57315;SDS011;43156;50.942;18.144;2022-09-21T09:36:46;4.40;;;4.00;;
57315;SDS011;43156;50.942;18.144;2022-09-21T09:39:15;3.70;;;3.40;;
57315;SDS011;43156;50.942;18.144;2022-09-21T09:52:28;4.30;;;3.90;;
57315;SDS011;43156;50.942;18.144;2022-09-21T09:54:56;4.20;;;3.70;;
57315;SDS011;43156;50.942;18.144;2022-09-21T09:57:26;5.10;;;3.30;;
57315;SDS011;43156;50.942;18.144;2022-09-21T09:59:55;3.60;;;3.30;;
57315;SDS011;43156;50.942;18.144;2022-09-21T10:02:28;4.30;;;3.90;;
57315;SDS011;43156;50.942;18.144;2022-09-21T10:04:57;7.60;;;6.80;;
57315;SDS011;43156;50.942;18.144;2022-09-21T10:07:33;6.30;;;4.80;;
57315;SDS011;43156;50.942;18.144;2022-09-21T10:12:56;3.40;;;3.00;;
57315;SDS011;43156;50.942;18.144;2022-09-21T10:15:26;2.90;;;2.60;;
57315;SDS011;43156;50.942;18.144;2022-09-21T10:18:00;3.20;;;2.80;;
57315;SDS011;43156;50.942;18.144;2022-09-21T10:20:29;3.00;;;2.70;;
57315;SDS011;43156;50.942;18.144;2022-09-21T10:22:57;3.30;;;2.80;;
57315;SDS011;43156;50.942;18.144;2022-09-21T10:25:24;3.10;;;2.20;;
57315;SDS011;43156;50.942;18.144;2022-09-21T10:27:52;5.50;;;4.70;;
57315;SDS011;43156;50.942;18.144;2022-09-21T10:30:31;3.00;;;2.60;;
57315;SDS011;43156;50.942;18.144;2022-09-21T10:32:59;3.20;;;2.90;;
57315;SDS011;43156;50.942;18.144;2022-09-21T10:35:27;3.30;;;2.20;;
57315;SDS011;43156;50.942;18.144;2022-09-21T10:38:09;2.90;;;2.40;;
57315;SDS011;43156;50.942;18.144;2022-09-21T10:40:37;2.40;;;2.20;;
57315;SDS011;43156;50.942;18.144;2022-09-21T10:43:05;2.70;;;2.30;;
57315;SDS011;43156;50.942;18.144;2022-09-21T10:45:56;4.20;;;2.70;;
57315;SDS011;43156;50.942;18.144;2022-09-21T10:48:23;3.20;;;2.20;;
57315;SDS011;43156;50.942;18.144;2022-09-21T10:50:51;2.70;;;2.40;;
57315;SDS011;43156;50.942;18.144;2022-09-21T10:53:21;2.80;;;2.50;;
57315;SDS011;43156;50.942;18.144;2022-09-21T10:56:03;4.00;;;2.30;;
57315;SDS011;43156;50.942;18.144;2022-09-21T10:58:31;3.10;;;2.30;;
57315;SDS011;43156;50.942;18.144;2022-09-21T11:01:21;3.00;;;2.40;;
57315;SDS011;43156;50.942;18.144;2022-09-21T11:04:01;2.90;;;2.10;;
57315;SDS011;43156;50.942;18.144;2022-09-21T11:06:34;2.10;;;1.80;;
57315;SDS011;43156;50.942;18.144;2022-09-21T11:12:16;2.80;;;2.00;;
57315;SDS011;43156;50.942;18.144;2022-09-21T11:15:15;2.20;;;2.00;;
57315;SDS011;43156;50.942;18.144;2022-09-21T11:20:50;2.50;;;2.30;;
57315;SDS011;43156;50.942;18.144;2022-09-21T11:23:32;1.80;;;1.40;;
57315;SDS011;43156;50.942;18.144;2022-09-21T11:26:26;1.70;;;1.40;;
57315;SDS011;43156;50.942;18.144;2022-09-21T11:31:51;3.20;;;1.50;;
57315;SDS011;43156;50.942;18.144;2022-09-21T11:34:42;1.70;;;1.60;;
57315;SDS011;43156;50.942;18.144;2022-09-21T12:00:06;1.80;;;1.30;;
57315;SDS011;43156;50.942;18.144;2022-09-21T12:17:29;1.90;;;1.30;;
57315;SDS011;43156;50.942;18.144;2022-09-21T12:22:49;1.50;;;1.10;;
57315;SDS011;43156;50.942;18.144;2022-09-21T12:25:31;2.20;;;1.50;;
57315;SDS011;43156;50.942;18.144;2022-09-21T12:30:46;3.60;;;1.80;;
57315;SDS011;43156;50.942;18.144;2022-09-21T12:39:27;2.10;;;1.90;;
57315;SDS011;43156;50.942;18.144;2022-09-21T12:44:49;2.10;;;1.40;;
57315;SDS011;43156;50.942;18.144;2022-09-21T12:47:23;2.70;;;1.50;;
57315;SDS011;43156;50.942;18.144;2022-09-21T12:50:21;2.50;;;1.70;;
57315;SDS011;43156;50.942;18.144;2022-09-21T12:52:57;2.10;;;1.60;;
57315;SDS011;43156;50.942;18.144;2022-09-21T13:03:27;3.70;;;1.90;;
57315;SDS011;43156;50.942;18.144;2022-09-21T13:06:14;1.70;;;1.20;;
57315;SDS011;43156;50.942;18.144;2022-09-21T13:08:53;1.30;;;1.20;;
57315;SDS011;43156;50.942;18.144;2022-09-21T13:11:21;1.80;;;1.40;;
57315;SDS011;43156;50.942;18.144;2022-09-21T13:13:51;1.20;;;1.10;;
57315;SDS011;43156;50.942;18.144;2022-09-21T13:16:23;1.30;;;1.00;;
57315;SDS011;43156;50.942;18.144;2022-09-21T13:19:00;1.00;;;0.80;;
57315;SDS011;43156;50.942;18.144;2022-09-21T13:21:30;1.00;;;0.70;;
57315;SDS011;43156;50.942;18.144;2022-09-21T13:24:01;1.10;;;0.70;;
57315;SDS011;43156;50.942;18.144;2022-09-21T13:26:38;2.00;;;1.30;;
57315;SDS011;43156;50.942;18.144;2022-09-21T13:31:59;2.70;;;2.10;;
57315;SDS011;43156;50.942;18.144;2022-09-21T13:34:31;3.30;;;3.00;;
57315;SDS011;43156;50.942;18.144;2022-09-21T13:39:44;2.60;;;1.70;;
57315;SDS011;43156;50.942;18.144;2022-09-21T13:47:50;3.20;;;2.80;;
57315;SDS011;43156;50.942;18.144;2022-09-21T13:50:25;2.60;;;2.40;;
57315;SDS011;43156;50.942;18.144;2022-09-21T13:53:07;2.50;;;1.20;;
57315;SDS011;43156;50.942;18.144;2022-09-21T13:55:52;1.30;;;0.90;;
57315;SDS011;43156;50.942;18.144;2022-09-21T13:58:26;0.50;;;0.40;;
57315;SDS011;43156;50.942;18.144;2022-09-21T14:00:57;0.70;;;0.40;;
57315;SDS011;43156;50.942;18.144;2022-09-21T14:03:31;0.60;;;0.50;;
57315;SDS011;43156;50.942;18.144;2022-09-21T14:06:22;1.80;;;0.80;;
57315;SDS011;43156;50.942;18.144;2022-09-21T14:11:33;0.90;;;0.50;;
57315;SDS011;43156;50.942;18.144;2022-09-21T14:24:41;15.90;;;14.80;;
57315;SDS011;43156;50.942;18.144;2022-09-21T14:27:17;12.10;;;11.20;;
57315;SDS011;43156;50.942;18.144;2022-09-21T14:29:51;1.70;;;1.60;;
57315;SDS011;43156;50.942;18.144;2022-09-21T14:32:25;25.00;;;22.40;;
57315;SDS011;43156;50.942;18.144;2022-09-21T14:35:00;24.40;;;22.10;;
57315;SDS011;43156;50.942;18.144;2022-09-21T14:37:43;15.40;;;14.30;;
57315;SDS011;43156;50.942;18.144;2022-09-21T14:40:23;32.90;;;28.50;;
57315;SDS011;43156;50.942;18.144;2022-09-21T14:42:52;38.70;;;34.80;;
57315;SDS011;43156;50.942;18.144;2022-09-21T14:45:22;37.40;;;32.80;;
57315;SDS011;43156;50.942;18.144;2022-09-21T14:53:22;19.90;;;17.60;;
57315;SDS011;43156;50.942;18.144;2022-09-21T15:12:58;10.90;;;9.90;;
57315;SDS011;43156;50.942;18.144;2022-09-21T15:18:49;9.80;;;8.80;;
57315;SDS011;43156;50.942;18.144;2022-09-21T15:21:21;51.10;;;41.70;;
57315;SDS011;43156;50.942;18.144;2022-09-21T15:23:51;115.80;;;79.90;;
57315;SDS011;43156;50.942;18.144;2022-09-21T15:26:22;53.30;;;45.90;;
57315;SDS011;43156;50.942;18.144;2022-09-21T15:28:57;44.80;;;39.80;;
57315;SDS011;43156;50.942;18.144;2022-09-21T15:31:29;25.40;;;22.90;;
57315;SDS011;43156;50.942;18.144;2022-09-21T15:33:59;8.00;;;7.30;;
57315;SDS011;43156;50.942;18.144;2022-09-21T15:36:28;6.70;;;6.10;;
57315;SDS011;43156;50.942;18.144;2022-09-21T15:39:02;6.10;;;5.60;;
57315;SDS011;43156;50.942;18.144;2022-09-21T15:41:39;4.40;;;4.00;;
57315;SDS011;43156;50.942;18.144;2022-09-21T15:46:45;6.40;;;5.80;;
57315;SDS011;43156;50.942;18.144;2022-09-21T15:49:17;5.50;;;4.90;;
57315;SDS011;43156;50.942;18.144;2022-09-21T15:51:49;2.60;;;2.40;;
57315;SDS011;43156;50.942;18.144;2022-09-21T15:56:58;4.50;;;3.00;;
57315;SDS011;43156;50.942;18.144;2022-09-21T15:59:26;4.50;;;3.50;;
57315;SDS011;43156;50.942;18.144;2022-09-21T16:01:54;5.50;;;5.00;;
57315;SDS011;43156;50.942;18.144;2022-09-21T16:04:23;7.90;;;7.10;;
57315;SDS011;43156;50.942;18.144;2022-09-21T16:09:49;4.90;;;4.60;;
57315;SDS011;43156;50.942;18.144;2022-09-21T16:15:07;2.80;;;2.50;;
57315;SDS011;43156;50.942;18.144;2022-09-21T16:17:52;4.00;;;3.20;;
57315;SDS011;43156;50.942;18.144;2022-09-21T16:20:47;3.20;;;2.20;;
57315;SDS011;43156;50.942;18.144;2022-09-21T16:23:14;3.30;;;2.80;;
57315;SDS011;43156;50.942;18.144;2022-09-21T16:25:56;3.50;;;3.10;;
57315;SDS011;43156;50.942;18.144;2022-09-21T16:28:27;2.40;;;1.60;;
57315;SDS011;43156;50.942;18.144;2022-09-21T16:30:56;2.80;;;1.80;;
57315;SDS011;43156;50.942;18.144;2022-09-21T16:38:57;1.10;;;0.90;;
57315;SDS011;43156;50.942;18.144;2022-09-21T16:41:43;1.70;;;0.90;;
57315;SDS011;43156;50.942;18.144;2022-09-21T16:44:19;3.60;;;2.60;;
57315;SDS011;43156;50.942;18.144;2022-09-21T16:46:53;7.20;;;5.20;;
57315;SDS011;43156;50.942;18.144;2022-09-21T16:49:22;4.90;;;3.10;;
57315;SDS011;43156;50.942;18.144;2022-09-21T16:51:52;2.60;;;1.70;;
57315;SDS011;43156;50.942;18.144;2022-09-21T16:54:20;1.40;;;1.10;;
57315;SDS011;43156;50.942;18.144;2022-09-21T16:56:50;4.60;;;3.90;;
57315;SDS011;43156;50.942;18.144;2022-09-21T16:59:19;5.00;;;4.50;;
57315;SDS011;43156;50.942;18.144;2022-09-21T17:01:50;3.50;;;2.80;;
57315;SDS011;43156;50.942;18.144;2022-09-21T17:04:21;2.60;;;1.70;;
57315;SDS011;43156;50.942;18.144;2022-09-21T17:06:49;2.90;;;1.00;;
57315;SDS011;43156;50.942;18.144;2022-09-21T17:09:25;1.70;;;1.10;;
57315;SDS011;43156;50.942;18.144;2022-09-21T17:12:10;2.30;;;1.00;;
57315;SDS011;43156;50.942;18.144;2022-09-21T17:14:38;1.40;;;0.90;;
57315;SDS011;43156;50.942;18.144;2022-09-21T17:17:22;2.10;;;0.90;;
57315;SDS011;43156;50.942;18.144;2022-09-21T17:19:49;2.00;;;1.10;;
57315;SDS011;43156;50.942;18.144;2022-09-21T17:22:18;2.20;;;1.40;;
57315;SDS011;43156;50.942;18.144;2022-09-21T17:24:50;3.00;;;1.80;;
57315;SDS011;43156;50.942;18.144;2022-09-21T17:27:20;2.20;;;0.80;;
57315;SDS011;43156;50.942;18.144;2022-09-21T17:29:49;2.50;;;2.30;;
57315;SDS011;43156;50.942;18.144;2022-09-21T17:32:19;3.00;;;2.50;;
57315;SDS011;43156;50.942;18.144;2022-09-21T17:34:56;3.10;;;2.00;;
57315;SDS011;43156;50.942;18.144;2022-09-21T17:37:26;2.20;;;2.00;;
57315;SDS011;43156;50.942;18.144;2022-09-21T17:39:54;4.40;;;2.70;;
57315;SDS011;43156;50.942;18.144;2022-09-21T17:42:21;4.90;;;4.20;;
57315;SDS011;43156;50.942;18.144;2022-09-21T17:47:42;97.20;;;65.40;;
57315;SDS011;43156;50.942;18.144;2022-09-21T17:52:39;9.40;;;7.40;;
57315;SDS011;43156;50.942;18.144;2022-09-21T17:55:25;6.20;;;5.20;;
57315;SDS011;43156;50.942;18.144;2022-09-21T17:57:58;4.70;;;4.30;;
57315;SDS011;43156;50.942;18.144;2022-09-21T18:03:25;2.30;;;2.10;;
57315;SDS011;43156;50.942;18.144;2022-09-21T18:05:54;4.00;;;3.00;;
57315;SDS011;43156;50.942;18.144;2022-09-21T18:08:31;2.60;;;2.20;;
57315;SDS011;43156;50.942;18.144;2022-09-21T18:16:38;3.20;;;2.90;;
57315;SDS011;43156;50.942;18.144;2022-09-21T18:25:11;18.20;;;14.40;;
57315;SDS011;43156;50.942;18.144;2022-09-21T18:27:41;22.10;;;17.20;;
57315;SDS011;43156;50.942;18.144;2022-09-21T18:30:10;38.00;;;28.60;;
57315;SDS011;43156;50.942;18.144;2022-09-21T18:38:44;4.70;;;3.40;;
57315;SDS011;43156;50.942;18.144;2022-09-21T18:41:20;4.40;;;3.00;;
57315;SDS011;43156;50.942;18.144;2022-09-21T18:44:31;2.60;;;2.20;;
57315;SDS011;43156;50.942;18.144;2022-09-21T18:47:06;6.40;;;5.10;;
57315;SDS011;43156;50.942;18.144;2022-09-21T18:55:28;4.50;;;4.00;;
57315;SDS011;43156;50.942;18.144;2022-09-21T18:57:57;11.40;;;10.30;;
57315;SDS011;43156;50.942;18.144;2022-09-21T19:00:26;4.10;;;3.00;;
57315;SDS011;43156;50.942;18.144;2022-09-21T19:02:57;3.10;;;2.30;;
57315;SDS011;43156;50.942;18.144;2022-09-21T19:05:24;21.80;;;15.10;;
57315;SDS011;43156;50.942;18.144;2022-09-21T19:10:26;6.40;;;5.70;;
57315;SDS011;43156;50.942;18.144;2022-09-21T19:15:29;5.40;;;3.30;;
57315;SDS011;43156;50.942;18.144;2022-09-21T19:20:58;4.50;;;2.90;;